createdAt,value
2023-02-11T13:33:37.462Z,86404
2023-02-11T13:34:39.514Z,26330
2023-02-11T13:35:41.152Z,38072
2023-02-11T13:36:42.933Z,49636
2023-02-11T13:37:44.843Z,60283
2023-02-11T13:38:46.772Z,70898
2023-02-11T13:39:48.551Z,81053
2023-02-11T13:40:51.932Z,89834
2023-02-11T13:42:02.721Z,98471
2023-02-11T13:43:05.019Z,105812
2023-02-11T13:44:07.181Z,113023
2023-02-11T13:45:08.963Z,120072
2023-02-11T13:46:11.524Z,125940
2023-02-11T13:47:12.715Z,131994
2023-02-11T13:48:14.699Z,137521
2023-02-11T13:49:16.590Z,142675
2023-02-11T13:50:18.329Z,147059
2023-02-11T13:51:20.699Z,151584
2023-02-11T13:52:22.222Z,154806
2023-02-11T13:53:24.222Z,158617
2023-02-11T13:54:25.984Z,164216
2023-02-11T13:55:28.017Z,167166
2023-02-11T13:56:29.916Z,170397
2023-02-11T13:57:31.759Z,172680
2023-02-11T13:58:33.879Z,175393
2023-02-11T13:59:35.629Z,177061
2023-02-11T14:00:38.001Z,182263
2023-02-11T14:01:39.627Z,183260
2023-02-11T14:02:41.616Z,185083
2023-02-11T14:03:43.141Z,186534
2023-02-11T14:04:49.505Z,189649
2023-02-11T14:05:57.338Z,192082
2023-02-11T14:06:59.299Z,192983
2023-02-11T14:08:01.158Z,194694
2023-02-11T14:09:03.416Z,197378
2023-02-11T14:10:04.890Z,198568
2023-02-11T14:11:06.874Z,200380
2023-02-11T14:12:08.817Z,201360
2023-02-11T14:13:11.147Z,203475
2023-02-11T14:14:12.462Z,204867
2023-02-11T14:15:14.449Z,204995
2023-02-11T14:16:39.326Z,206797
2023-02-11T14:17:49.170Z,208367
2023-02-11T14:18:51.089Z,208895
2023-02-11T14:19:53.192Z,210632
2023-02-11T14:20:54.749Z,211172
2023-02-11T14:21:56.737Z,212535
2023-02-11T14:22:58.610Z,212261
2023-02-11T14:24:00.410Z,213777
2023-02-11T14:25:02.445Z,215033
2023-02-11T14:26:04.689Z,215174
2023-02-11T14:27:06.069Z,216162
2023-02-11T14:28:08.276Z,216874
2023-02-11T14:29:09.890Z,217734
2023-02-11T14:30:12.227Z,218456
2023-02-11T14:31:14.412Z,219768
2023-02-11T14:32:15.913Z,219768
2023-02-11T14:33:17.491Z,221841
2023-02-11T14:34:19.972Z,222290
2023-02-11T14:35:21.576Z,221393
2023-02-11T14:36:23.401Z,222892
2023-02-11T14:37:25.152Z,224410
2023-02-11T14:38:27.270Z,224410
2023-02-11T14:39:29.133Z,224105
2023-02-11T14:40:31.153Z,225486
2023-02-11T14:41:32.945Z,226728
2023-02-11T14:42:34.992Z,226884
2023-02-11T14:43:36.760Z,226416
2023-02-11T14:44:38.563Z,227511
2023-02-11T14:45:40.420Z,227511
2023-02-11T14:46:42.341Z,228616
2023-02-11T14:47:44.272Z,227511
2023-02-11T14:48:46.446Z,229253
2023-02-11T14:49:47.961Z,228458
2023-02-11T14:50:51.887Z,230537
2023-02-11T14:52:02.151Z,230698
2023-02-11T14:53:04.215Z,229733
2023-02-11T14:54:06.061Z,231022
2023-02-11T14:55:07.842Z,231184
2023-02-11T14:56:09.782Z,231998
2023-02-11T14:57:11.761Z,231998
2023-02-11T14:58:13.521Z,233810
2023-02-11T14:59:15.588Z,233313
2023-02-11T15:00:18.297Z,234978
2023-02-11T15:01:19.354Z,234643
2023-02-11T15:02:21.262Z,233478
2023-02-11T15:03:23.091Z,235313
2023-02-11T15:04:25.438Z,233810
2023-02-11T15:05:26.954Z,234810
2023-02-11T15:06:28.707Z,236836
2023-02-11T15:07:30.482Z,235482
2023-02-11T15:08:32.887Z,236666
2023-02-11T15:09:34.332Z,235988
2023-02-11T15:10:36.265Z,237177
2023-02-11T15:11:38.124Z,237863
2023-02-11T15:12:40.471Z,238207
2023-02-11T15:13:41.842Z,238552
2023-02-11T15:14:43.742Z,238207
2023-02-11T15:15:45.773Z,238898
2023-02-11T15:16:48.051Z,239593
2023-02-11T15:17:49.526Z,239419
2023-02-11T15:18:51.430Z,239593
2023-02-11T15:19:53.239Z,239593
2023-02-11T15:20:55.533Z,239593
2023-02-11T15:21:58.315Z,240468
2023-02-11T15:23:10.303Z,240643
2023-02-11T15:24:21.531Z,241526
2023-02-11T15:25:23.819Z,240292
2023-02-11T15:26:25.328Z,240117
2023-02-11T15:27:27.150Z,240996
2023-02-11T15:28:29.568Z,240468
2023-02-11T15:29:31.492Z,239942
2023-02-11T15:30:32.989Z,242058
2023-02-11T15:31:36.469Z,242415
2023-02-11T15:32:47.116Z,241172
2023-02-11T15:33:49.394Z,241349
2023-02-11T15:34:50.874Z,242058
2023-02-11T15:35:52.636Z,242236
2023-02-11T15:36:54.643Z,241703
2023-02-11T15:37:57.112Z,242772
2023-02-11T15:38:58.339Z,243851
2023-02-11T15:40:00.196Z,242593
2023-02-11T15:41:02.215Z,242236
2023-02-11T15:42:04.753Z,244031
2023-02-11T15:43:05.919Z,243851
2023-02-11T15:44:07.874Z,242951
2023-02-11T15:45:10.025Z,244575
2023-02-11T15:46:11.928Z,242058
2023-02-11T15:47:13.517Z,244031
2023-02-11T15:48:15.420Z,244575
2023-02-11T15:49:17.494Z,243490
2023-02-11T15:50:19.274Z,243851
2023-02-11T15:51:21.226Z,244393
2023-02-11T15:52:23.384Z,244031
2023-02-11T15:53:25.029Z,245121
2023-02-11T15:54:26.824Z,246774
2023-02-11T15:55:28.711Z,246405
2023-02-11T15:56:30.635Z,243490
2023-02-11T15:57:32.503Z,243851
2023-02-11T15:58:34.355Z,244031
2023-02-11T15:59:36.429Z,244757
2023-02-11T16:00:38.182Z,245486
2023-02-11T16:01:40.462Z,245853
2023-02-11T16:02:41.843Z,244212
2023-02-11T16:03:44.355Z,244575
2023-02-11T16:04:45.689Z,246037
2023-02-11T16:05:47.792Z,245121
2023-02-11T16:06:49.753Z,245670
2023-02-11T16:07:58.890Z,245853
2023-02-11T16:09:03.825Z,245304
2023-02-11T16:10:05.479Z,245670
2023-02-11T16:11:07.362Z,246774
2023-02-11T16:12:09.687Z,245670
2023-02-11T16:13:11.022Z,246589
2023-02-11T16:14:13.023Z,245486
2023-02-11T16:15:14.983Z,246405
2023-02-11T16:16:17.501Z,246405
2023-02-11T16:17:18.804Z,246037
2023-02-11T16:18:38.533Z,246405
2023-02-11T16:19:43.082Z,247330
2023-02-11T16:20:44.881Z,246037
2023-02-11T16:21:47.160Z,246221
2023-02-11T16:22:48.912Z,247702
2023-02-11T16:23:50.602Z,246589
2023-02-11T16:24:53.291Z,246774
2023-02-11T16:25:54.599Z,247330
2023-02-11T16:26:56.551Z,246221
2023-02-11T16:27:58.638Z,247144
2023-02-11T16:29:00.772Z,246774
2023-02-11T16:30:02.632Z,246589
2023-02-11T16:31:04.756Z,247516
2023-02-11T16:32:07.691Z,247516
2023-02-11T16:33:18.782Z,246774
2023-02-11T16:34:20.285Z,246589
2023-02-11T16:35:22.061Z,248449
2023-02-11T16:36:26.053Z,247702
2023-02-11T16:37:36.653Z,248449
2023-02-11T16:38:38.097Z,248637
2023-02-11T16:39:39.910Z,249201
2023-02-11T16:40:41.982Z,247330
2023-02-11T16:41:44.439Z,247144
2023-02-11T16:42:45.729Z,248825
2023-02-11T16:43:47.560Z,246774
2023-02-11T16:44:49.516Z,245121
2023-02-11T16:45:53.467Z,241881
2023-02-11T16:47:04.039Z,240643
2023-02-11T16:48:05.470Z,238035
2023-02-11T16:49:07.455Z,237177
2023-02-11T16:50:09.735Z,236666
2023-02-11T16:51:11.149Z,235482
2023-02-11T16:52:13.089Z,234978
2023-02-11T16:53:15.031Z,235650
2023-02-11T16:54:17.317Z,236836
2023-02-11T16:55:18.680Z,235482
2023-02-11T16:56:20.735Z,238035
2023-02-11T16:57:22.533Z,236157
2023-02-11T16:58:25.239Z,237691
2023-02-11T16:59:27.366Z,237863
2023-02-11T17:00:29.662Z,237348
2023-02-11T17:01:31.709Z,237691
2023-02-11T17:02:33.224Z,238379
2023-02-11T17:03:35.511Z,238725
2023-02-11T17:04:37.254Z,237691
2023-02-11T17:05:59.264Z,238552
2023-02-11T17:07:01.337Z,240292
2023-02-11T17:08:03.367Z,240643
2023-02-11T17:09:05.255Z,240996
2023-02-11T17:10:07.281Z,240468
2023-02-11T17:11:09.021Z,242058
2023-02-11T17:12:11.781Z,240468
2023-02-11T17:13:12.937Z,240643
2023-02-11T17:14:14.757Z,240996
2023-02-11T17:15:16.636Z,241172
2023-02-11T17:16:19.265Z,241703
2023-02-11T17:17:20.485Z,242236
2023-02-11T17:18:22.288Z,243131
2023-02-11T17:19:24.316Z,242415
2023-02-11T17:20:26.556Z,243851
2023-02-11T17:21:31.047Z,242415
2023-02-11T17:22:40.156Z,244212
2023-02-11T17:23:42.028Z,243851
2023-02-11T17:24:44.454Z,242415
2023-02-11T17:25:48.025Z,243851
2023-02-11T17:26:58.066Z,245121
2023-02-11T17:28:00.240Z,244031
2023-02-11T17:29:01.788Z,244575
2023-02-11T17:30:03.781Z,244393
2023-02-11T17:31:05.741Z,245486
2023-02-11T17:32:07.926Z,245670
2023-02-11T17:33:10.016Z,244031
2023-02-11T17:34:11.324Z,244031
2023-02-11T17:35:13.269Z,244757
2023-02-11T17:36:15.096Z,244757
2023-02-11T17:37:17.463Z,244939
2023-02-11T17:38:18.889Z,245486
2023-02-11T17:39:20.747Z,245121
2023-02-11T17:40:22.605Z,245486
2023-02-11T17:41:25.046Z,244757
2023-02-11T17:42:26.445Z,245486
2023-02-11T17:43:28.528Z,246959
2023-02-11T17:44:30.304Z,244939
2023-02-11T17:45:32.573Z,244575
2023-02-11T17:46:33.945Z,246405
2023-02-11T17:47:36.164Z,246589
2023-02-11T17:48:37.797Z,245304
2023-02-11T17:49:39.667Z,244757
2023-02-11T17:50:41.464Z,245670
2023-02-11T17:51:43.483Z,245670
2023-02-11T17:52:45.348Z,246037
2023-02-11T17:53:47.143Z,245304
2023-02-11T17:54:49.024Z,246405
2023-02-11T17:55:52.651Z,245853
2023-02-11T17:57:03.303Z,246221
2023-02-11T17:58:05.023Z,246959
2023-02-11T17:59:07.015Z,246221
2023-02-11T18:00:08.908Z,246589
2023-02-11T18:01:11.035Z,246221
2023-02-11T18:02:12.532Z,247888
2023-02-11T18:03:14.609Z,244939
2023-02-11T18:04:16.702Z,247144
2023-02-11T18:05:18.498Z,246959
2023-02-11T18:06:20.236Z,246774
2023-02-11T18:07:22.097Z,246221
2023-02-11T18:08:23.920Z,246959
2023-02-11T18:09:25.861Z,247144
2023-02-11T18:10:27.820Z,246774
2023-02-11T18:11:29.621Z,246959
2023-02-11T18:12:31.601Z,247144
2023-02-11T18:13:33.440Z,247144
2023-02-11T18:14:35.432Z,245486
2023-02-11T18:15:37.224Z,246405
2023-02-11T18:16:39.699Z,246959
2023-02-11T18:17:40.926Z,247330
2023-02-11T18:18:42.948Z,247702
2023-02-11T18:19:45.205Z,248075
2023-02-11T18:20:46.906Z,246774
2023-02-11T18:21:48.544Z,247330
2023-02-11T18:22:50.554Z,247702
2023-02-11T18:23:52.847Z,247702
2023-02-11T18:24:54.233Z,247330
2023-02-11T18:25:56.225Z,247888
2023-02-11T18:26:58.085Z,247888
2023-02-11T18:28:00.692Z,246774
2023-02-11T18:29:01.758Z,247516
2023-02-11T18:30:03.842Z,248637
2023-02-11T18:31:06.107Z,249013
2023-02-11T18:32:08.408Z,248262
2023-02-11T18:33:09.552Z,248262
2023-02-11T18:34:11.313Z,249390
2023-02-11T18:35:15.622Z,249013
2023-02-11T18:36:25.876Z,250338
2023-02-11T18:37:27.481Z,248825
2023-02-11T18:38:29.213Z,248825
2023-02-11T18:39:31.154Z,248825
2023-02-11T18:40:33.215Z,248075
2023-02-11T18:41:34.921Z,250148
2023-02-11T18:42:36.865Z,248075
2023-02-11T18:43:38.763Z,248637
2023-02-11T18:44:40.641Z,248637
2023-02-11T18:45:42.860Z,247144
2023-02-11T18:46:44.382Z,248262
2023-02-11T18:47:46.422Z,248075
2023-02-11T18:48:48.243Z,247516
2023-02-11T18:49:50.101Z,247888
2023-02-11T18:50:51.958Z,248825
2023-02-11T18:51:53.782Z,248637
2023-02-11T18:52:55.763Z,249390
2023-02-11T18:53:57.633Z,248449
2023-02-11T18:54:59.559Z,248825
2023-02-11T18:56:01.349Z,249768
2023-02-11T18:57:03.317Z,248825
2023-02-11T18:58:05.177Z,249390
2023-02-11T18:59:07.172Z,248825
2023-02-11T19:00:08.891Z,248262
2023-02-11T19:01:11.182Z,248637
2023-02-11T19:02:12.647Z,249768
2023-02-11T19:03:14.519Z,249768
2023-02-11T19:04:16.826Z,247702
2023-02-11T19:05:18.275Z,250148
2023-02-11T19:06:20.625Z,249768
2023-02-11T19:07:22.053Z,249201
2023-02-11T19:08:23.919Z,248825
2023-02-11T19:09:25.831Z,249768
2023-02-11T19:10:28.093Z,250148
2023-02-11T19:11:29.624Z,249201
2023-02-11T19:12:31.362Z,247888
2023-02-11T19:13:33.225Z,249201
2023-02-11T19:14:35.627Z,249768
2023-02-11T19:15:37.026Z,249768
2023-02-11T19:16:39.195Z,249768
2023-02-11T19:17:40.870Z,250528
2023-02-11T19:18:43.186Z,249201
2023-02-11T19:19:44.526Z,250148
2023-02-11T19:20:46.546Z,249013
2023-02-11T19:21:48.388Z,249390
2023-02-11T19:22:50.616Z,249579
2023-02-11T19:23:52.233Z,249579
2023-02-11T19:24:54.022Z,249768
2023-02-11T19:25:55.822Z,250338
2023-02-11T19:26:57.981Z,249958
2023-02-11T19:27:59.885Z,249390
2023-02-11T19:29:01.642Z,251101
2023-02-11T19:30:03.440Z,251293
2023-02-11T19:31:05.928Z,249768
2023-02-11T19:32:07.874Z,251101
2023-02-11T19:33:10.923Z,251677
2023-02-11T19:34:21.361Z,250910
2023-02-11T19:35:23.252Z,250910
2023-02-11T19:36:25.083Z,251101
2023-02-11T19:37:27.103Z,250719
2023-02-11T19:38:28.927Z,250719
2023-02-11T19:39:30.732Z,251101
2023-02-11T19:40:32.782Z,250719
2023-02-11T19:41:34.725Z,251677
2023-02-11T19:42:36.326Z,251101
2023-02-11T19:43:38.303Z,249768
2023-02-11T19:44:40.194Z,251293
2023-02-11T19:45:42.056Z,250719
2023-02-11T19:46:44.318Z,250148
2023-02-11T19:47:46.215Z,251293
2023-02-11T19:48:47.736Z,251101
2023-02-11T19:49:49.598Z,251485
2023-02-11T19:50:51.571Z,251293
2023-02-11T19:51:53.461Z,251677
2023-02-11T19:52:55.251Z,250910
2023-02-11T19:53:57.311Z,252642
2023-02-11T19:54:59.105Z,251677
2023-02-11T19:56:01.076Z,251870
2023-02-11T19:57:02.815Z,252062
2023-02-11T19:58:04.713Z,250719
2023-02-11T19:59:06.592Z,251485
2023-02-11T20:00:08.486Z,250148
2023-02-11T20:01:11.068Z,252255
2023-02-11T20:02:12.519Z,251293
2023-02-11T20:03:14.229Z,251293
2023-02-11T20:04:16.079Z,250338
2023-02-11T20:05:18.423Z,251870
2023-02-11T20:06:19.888Z,252062
2023-02-11T20:07:21.709Z,250338
2023-02-11T20:08:23.712Z,251870
2023-02-11T20:09:26.050Z,252642
2023-02-11T20:10:27.388Z,251870
2023-02-11T20:11:29.470Z,250719
2023-02-11T20:12:31.212Z,250719
2023-02-11T20:13:33.488Z,252642
2023-02-11T20:14:34.928Z,251485
2023-02-11T20:15:37.094Z,252642
2023-02-11T20:16:50.890Z,252062
2023-02-11T20:18:01.618Z,252642
2023-02-11T20:19:03.245Z,252642
2023-02-11T20:20:05.042Z,252449
2023-02-11T20:21:06.964Z,251870
2023-02-11T20:22:09.201Z,251870
2023-02-11T20:23:10.580Z,252255
2023-02-11T20:24:12.552Z,252255
2023-02-11T20:25:14.441Z,249958
2023-02-11T20:26:16.786Z,251101
2023-02-11T20:27:21.008Z,251677
2023-02-11T20:28:30.602Z,251677
2023-02-11T20:29:32.391Z,252642
2023-02-11T20:30:34.691Z,252255
2023-02-11T20:31:36.987Z,251293
2023-02-11T20:32:37.842Z,250910
2023-02-11T20:33:39.846Z,250148
2023-02-11T20:34:42.282Z,250528
2023-02-11T20:35:43.842Z,252255
2023-02-11T20:36:45.461Z,251677
2023-02-11T20:37:47.467Z,252836
2023-02-11T20:38:49.508Z,252255
2023-02-11T20:39:51.180Z,251293
2023-02-11T20:40:53.161Z,252642
2023-02-11T20:41:55.020Z,252836
2023-02-11T20:42:56.805Z,251870
2023-02-11T20:43:58.840Z,251870
2023-02-11T20:45:00.662Z,253031
2023-02-11T20:46:02.693Z,253420
2023-02-11T20:47:04.462Z,252836
2023-02-11T20:48:06.322Z,254202
2023-02-11T20:49:08.222Z,251677
2023-02-11T20:50:10.286Z,251293
2023-02-11T20:51:12.152Z,253420
2023-02-11T20:52:14.171Z,253031
2023-02-11T20:53:15.812Z,252062
2023-02-11T20:54:17.833Z,251293
2023-02-11T20:55:19.613Z,252062
2023-02-11T20:56:21.517Z,252836
2023-02-11T20:57:23.410Z,251293
2023-02-11T20:58:25.349Z,252642
2023-02-11T20:59:27.192Z,253031
2023-02-11T21:00:29.172Z,251870
2023-02-11T21:01:31.144Z,252836
2023-02-11T21:02:32.883Z,251485
2023-02-11T21:03:35.062Z,252836
2023-02-11T21:04:37.153Z,253811
2023-02-11T21:05:38.695Z,252642
2023-02-11T21:06:40.472Z,252836
2023-02-11T21:07:42.371Z,251870
2023-02-11T21:08:44.779Z,253225
2023-02-11T21:09:46.150Z,253225
2023-02-11T21:10:48.111Z,254006
2023-02-11T21:11:50.054Z,252836
2023-02-11T21:12:52.454Z,252062
2023-02-11T21:13:53.772Z,252642
2023-02-11T21:14:55.634Z,252642
2023-02-11T21:15:58.942Z,251677
2023-02-11T21:17:10.026Z,252449
2023-02-11T21:18:11.444Z,251870
2023-02-11T21:19:13.352Z,254006
2023-02-11T21:20:15.275Z,252642
2023-02-11T21:21:17.725Z,251677
2023-02-11T21:22:18.942Z,253031
2023-02-11T21:23:20.947Z,251485
2023-02-11T21:24:22.783Z,252642
2023-02-11T21:25:25.010Z,253811
2023-02-11T21:26:26.576Z,253811
2023-02-11T21:27:28.668Z,253420
2023-02-11T21:28:30.574Z,253420
2023-02-11T21:29:54.385Z,254006
2023-02-11T21:31:05.740Z,254202
2023-02-11T21:32:07.250Z,252449
2023-02-11T21:33:08.729Z,251485
2023-02-11T21:34:11.147Z,252449
2023-02-11T21:35:12.529Z,251677
2023-02-11T21:36:14.470Z,251870
2023-02-11T21:37:16.414Z,252836
2023-02-11T21:38:18.719Z,253615
2023-02-11T21:39:20.128Z,254202
2023-02-11T21:40:23.732Z,252062
2023-02-11T21:41:34.312Z,254792
2023-02-11T21:42:36.578Z,252642
2023-02-11T21:43:37.914Z,253615
2023-02-11T21:44:39.835Z,254399
2023-02-11T21:45:41.820Z,253420
2023-02-11T21:46:44.357Z,252255
2023-02-11T21:47:45.454Z,253225
2023-02-11T21:48:47.526Z,254006
2023-02-11T21:49:49.385Z,253031
2023-02-11T21:50:51.874Z,254202
2023-02-11T21:51:53.114Z,252836
2023-02-11T21:52:55.119Z,253811
2023-02-11T21:53:56.874Z,253811
2023-02-11T21:54:59.128Z,253225
2023-02-11T21:56:00.719Z,253420
2023-02-11T21:57:02.533Z,254595
2023-02-11T21:58:04.563Z,252836
2023-02-11T21:59:06.464Z,255187
2023-02-11T22:00:08.267Z,253615
2023-02-11T22:01:10.695Z,252836
2023-02-11T22:02:12.077Z,253225
2023-02-11T22:03:13.913Z,255385
2023-02-11T22:04:15.983Z,254006
2023-02-11T22:05:17.735Z,254399
2023-02-11T22:06:19.591Z,254792
2023-02-11T22:07:21.480Z,254990
2023-02-11T22:08:23.629Z,253225
2023-02-11T22:09:25.261Z,254006
2023-02-11T22:10:27.275Z,253225
2023-02-11T22:11:29.076Z,253615
2023-02-11T22:12:31.072Z,253615
2023-02-11T22:13:32.886Z,253420
2023-02-11T22:14:34.794Z,253420
2023-02-11T22:15:36.753Z,253615
2023-02-11T22:16:39.340Z,256579
2023-02-11T22:17:40.436Z,254990
2023-02-11T22:18:42.304Z,254399
2023-02-11T22:19:44.116Z,255782
2023-02-11T22:20:46.586Z,253420
2023-02-11T22:21:48.206Z,255385
2023-02-11T22:22:49.777Z,255583
2023-02-11T22:23:52.028Z,253225
2023-02-11T22:24:54.066Z,253225
2023-02-11T22:25:56.966Z,254006
2023-02-11T22:27:07.658Z,254399
2023-02-11T22:28:09.807Z,254399
2023-02-11T22:29:11.958Z,253811
2023-02-11T22:30:13.398Z,255385
2023-02-11T22:31:15.867Z,254202
2023-02-11T22:32:17.204Z,255782
2023-02-11T22:33:19.337Z,253811
2023-02-11T22:34:20.934Z,254399
2023-02-11T22:35:22.824Z,254990
2023-02-11T22:36:24.582Z,255583
2023-02-11T22:37:27.033Z,254202
2023-02-11T22:38:28.547Z,256979
2023-02-11T22:39:30.492Z,254006
2023-02-11T22:40:32.312Z,255187
2023-02-11T22:41:34.577Z,255981
2023-02-11T22:42:36.000Z,255385
2023-02-11T22:43:37.861Z,255782
2023-02-11T22:44:39.863Z,255187
2023-02-11T22:45:41.987Z,255187
2023-02-11T22:46:43.514Z,254990
2023-02-11T22:47:45.399Z,257180
2023-02-11T22:48:47.467Z,254990
2023-02-11T22:49:49.164Z,256180
2023-02-11T22:50:51.145Z,256579
2023-02-11T22:51:53.030Z,256180
2023-02-11T22:52:54.862Z,257381
2023-02-11T22:53:56.723Z,256379
2023-02-11T22:54:58.841Z,256579
2023-02-11T22:56:00.499Z,255187
2023-02-11T22:57:02.455Z,256979
2023-02-11T22:58:04.295Z,254792
2023-02-11T22:59:06.139Z,255782
2023-02-11T23:00:08.123Z,255187
2023-02-11T23:01:10.544Z,255583
2023-02-11T23:02:12.523Z,257582
2023-02-11T23:03:13.637Z,255782
2023-02-11T23:04:15.636Z,256979
2023-02-11T23:05:17.530Z,255981
2023-02-11T23:06:19.499Z,256379
2023-02-11T23:07:21.289Z,256180
2023-02-11T23:08:23.217Z,255782
2023-02-11T23:09:25.178Z,256779
2023-02-11T23:10:27.069Z,257381
2023-02-11T23:11:29.526Z,255187
2023-02-11T23:12:30.804Z,255981
2023-02-11T23:13:32.700Z,255385
2023-02-11T23:14:34.646Z,254792
2023-02-11T23:15:36.867Z,256379
2023-02-11T23:16:38.647Z,255981
2023-02-11T23:17:40.248Z,254399
2023-02-11T23:18:42.215Z,256779
2023-02-11T23:19:44.375Z,255981
2023-02-11T23:20:45.854Z,255782
2023-02-11T23:21:47.855Z,254399
2023-02-11T23:22:49.685Z,256579
2023-02-11T23:23:52.185Z,256579
2023-02-11T23:24:53.446Z,255782
2023-02-11T23:25:57.055Z,255981
2023-02-11T23:27:07.624Z,256779
2023-02-11T23:28:10.080Z,256579
2023-02-11T23:29:11.371Z,255782
2023-02-11T23:30:13.110Z,257582
2023-02-11T23:31:15.722Z,256979
2023-02-11T23:32:17.804Z,256379
2023-02-11T23:33:18.905Z,256979
2023-02-11T23:34:20.724Z,257986
2023-02-11T23:35:22.605Z,256379
2023-02-11T23:36:24.797Z,255981
2023-02-11T23:37:26.488Z,256779
2023-02-11T23:38:28.188Z,256979
2023-02-11T23:39:29.968Z,256779
2023-02-11T23:40:32.048Z,256579
2023-02-11T23:41:33.945Z,256379
2023-02-11T23:42:35.720Z,255782
2023-02-11T23:43:37.660Z,255583
2023-02-11T23:44:39.541Z,256579
2023-02-11T23:45:41.656Z,256180
2023-02-11T23:46:43.326Z,257180
2023-02-11T23:47:45.361Z,257381
2023-02-11T23:48:47.156Z,257986
2023-02-11T23:49:48.928Z,255782
2023-02-11T23:50:50.842Z,256779
2023-02-11T23:51:52.751Z,255782
2023-02-11T23:52:54.584Z,256779
2023-02-11T23:53:56.544Z,258391
2023-02-11T23:54:58.475Z,256379
2023-02-11T23:56:00.229Z,255385
2023-02-11T23:57:02.394Z,257986
2023-02-11T23:58:04.169Z,256979
2023-02-11T23:59:06.012Z,256379
